sensor_id;sensor_type;location;lat;lon;timestamp;temperature;humidity
23259;DHT22;11798;51.528;7.240;2023-05-29T00:02:01;13.80;99.90
23259;DHT22;11798;51.528;7.240;2023-05-29T00:04:26;13.80;99.90
23259;DHT22;11798;51.528;7.240;2023-05-29T00:06:52;13.70;99.90
23259;DHT22;11798;51.528;7.240;2023-05-29T00:09:17;13.60;99.90
23259;DHT22;11798;51.528;7.240;2023-05-29T00:11:43;13.60;99.90
23259;DHT22;11798;51.528;7.240;2023-05-29T00:14:08;13.70;99.90
23259;DHT22;11798;51.528;7.240;2023-05-29T00:16:39;13.60;99.90
23259;DHT22;11798;51.528;7.240;2023-05-29T00:19:04;13.50;99.90
23259;DHT22;11798;51.528;7.240;2023-05-29T00:21:30;13.50;99.90
23259;DHT22;11798;51.528;7.240;2023-05-29T00:23:55;13.50;99.90
23259;DHT22;11798;51.528;7.240;2023-05-29T00:26:21;13.40;99.90
23259;DHT22;11798;51.528;7.240;2023-05-29T00:28:47;13.40;99.90
23259;DHT22;11798;51.528;7.240;2023-05-29T00:31:12;13.40;99.90
23259;DHT22;11798;51.528;7.240;2023-05-29T00:33:38;13.30;99.90
23259;DHT22;11798;51.528;7.240;2023-05-29T00:36:03;13.20;99.90
23259;DHT22;11798;51.528;7.240;2023-05-29T00:38:29;13.20;99.90
23259;DHT22;11798;51.528;7.240;2023-05-29T00:40:54;13.10;99.90
23259;DHT22;11798;51.528;7.240;2023-05-29T00:43:20;13.20;99.90
23259;DHT22;11798;51.528;7.240;2023-05-29T00:45:45;13.10;99.90
23259;DHT22;11798;51.528;7.240;2023-05-29T00:48:11;13.00;99.90
23259;DHT22;11798;51.528;7.240;2023-05-29T00:50:36;12.90;99.90
23259;DHT22;11798;51.528;7.240;2023-05-29T00:53:02;12.80;99.90
23259;DHT22;11798;51.528;7.240;2023-05-29T00:55:30;12.70;99.90
23259;DHT22;11798;51.528;7.240;2023-05-29T00:57:55;12.70;99.90
23259;DHT22;11798;51.528;7.240;2023-05-29T01:00:21;12.80;99.90
23259;DHT22;11798;51.528;7.240;2023-05-29T01:02:46;12.70;99.90
23259;DHT22;11798;51.528;7.240;2023-05-29T01:05:12;12.60;99.90
23259;DHT22;11798;51.528;7.240;2023-05-29T01:07:38;12.60;99.90
23259;DHT22;11798;51.528;7.240;2023-05-29T01:10:05;12.50;99.90
23259;DHT22;11798;51.528;7.240;2023-05-29T01:15:49;12.40;99.90
23259;DHT22;11798;51.528;7.240;2023-05-29T01:18:08;12.40;99.90
23259;DHT22;11798;51.528;7.240;2023-05-29T01:20:40;12.30;99.90
23259;DHT22;11798;51.528;7.240;2023-05-29T01:28:19;12.10;99.90
23259;DHT22;11798;51.528;7.240;2023-05-29T01:30:46;12.00;99.90
23259;DHT22;11798;51.528;7.240;2023-05-29T01:33:12;12.00;99.90
23259;DHT22;11798;51.528;7.240;2023-05-29T01:35:38;11.90;99.90
23259;DHT22;11798;51.528;7.240;2023-05-29T01:38:03;11.80;99.90
23259;DHT22;11798;51.528;7.240;2023-05-29T01:40:28;11.70;99.90
23259;DHT22;11798;51.528;7.240;2023-05-29T01:42:54;11.60;99.90
23259;DHT22;11798;51.528;7.240;2023-05-29T01:45:20;11.70;99.90
23259;DHT22;11798;51.528;7.240;2023-05-29T01:47:46;11.70;99.90
23259;DHT22;11798;51.528;7.240;2023-05-29T01:50:13;11.60;99.90
23259;DHT22;11798;51.528;7.240;2023-05-29T01:52:40;11.60;99.90
23259;DHT22;11798;51.528;7.240;2023-05-29T01:55:06;11.60;99.90
23259;DHT22;11798;51.528;7.240;2023-05-29T01:57:31;11.50;99.90
23259;DHT22;11798;51.528;7.240;2023-05-29T01:59:57;11.60;99.90
23259;DHT22;11798;51.528;7.240;2023-05-29T02:02:23;11.40;99.90
23259;DHT22;11798;51.528;7.240;2023-05-29T02:04:48;11.50;99.90
23259;DHT22;11798;51.528;7.240;2023-05-29T02:07:14;11.50;99.90
23259;DHT22;11798;51.528;7.240;2023-05-29T02:09:40;11.40;99.90
23259;DHT22;11798;51.528;7.240;2023-05-29T02:12:06;11.40;99.90
23259;DHT22;11798;51.528;7.240;2023-05-29T02:14:33;11.40;99.90
23259;DHT22;11798;51.528;7.240;2023-05-29T02:16:58;11.30;99.90
23259;DHT22;11798;51.528;7.240;2023-05-29T02:19:24;11.30;99.90
23259;DHT22;11798;51.528;7.240;2023-05-29T02:21:50;11.20;99.90
23259;DHT22;11798;51.528;7.240;2023-05-29T02:24:16;11.20;99.90
23259;DHT22;11798;51.528;7.240;2023-05-29T02:26:41;11.30;99.90
23259;DHT22;11798;51.528;7.240;2023-05-29T02:29:07;11.20;99.90
23259;DHT22;11798;51.528;7.240;2023-05-29T02:31:33;11.10;99.90
23259;DHT22;11798;51.528;7.240;2023-05-29T02:33:58;11.20;99.90
23259;DHT22;11798;51.528;7.240;2023-05-29T02:36:24;11.20;99.90
23259;DHT22;11798;51.528;7.240;2023-05-29T02:38:49;11.10;99.90
23259;DHT22;11798;51.528;7.240;2023-05-29T02:41:15;11.00;99.90
23259;DHT22;11798;51.528;7.240;2023-05-29T02:43:40;11.00;99.90
23259;DHT22;11798;51.528;7.240;2023-05-29T02:46:06;11.00;99.90
23259;DHT22;11798;51.528;7.240;2023-05-29T02:48:31;11.00;99.90
23259;DHT22;11798;51.528;7.240;2023-05-29T02:50:57;11.00;99.90
23259;DHT22;11798;51.528;7.240;2023-05-29T02:53:22;11.00;99.90
23259;DHT22;11798;51.528;7.240;2023-05-29T02:55:48;11.00;99.90
23259;DHT22;11798;51.528;7.240;2023-05-29T02:58:14;11.10;99.90
23259;DHT22;11798;51.528;7.240;2023-05-29T03:00:41;11.10;99.90
23259;DHT22;11798;51.528;7.240;2023-05-29T03:03:07;11.00;99.90
23259;DHT22;11798;51.528;7.240;2023-05-29T03:05:32;10.80;99.90
23259;DHT22;11798;51.528;7.240;2023-05-29T03:07:58;10.80;99.90
23259;DHT22;11798;51.528;7.240;2023-05-29T03:10:23;10.80;99.90
23259;DHT22;11798;51.528;7.240;2023-05-29T03:12:49;10.80;99.90
23259;DHT22;11798;51.528;7.240;2023-05-29T03:15:14;10.80;99.90
23259;DHT22;11798;51.528;7.240;2023-05-29T03:17:40;10.80;99.90
23259;DHT22;11798;51.528;7.240;2023-05-29T03:20:05;10.80;99.90
23259;DHT22;11798;51.528;7.240;2023-05-29T03:22:32;10.70;99.90
23259;DHT22;11798;51.528;7.240;2023-05-29T03:24:57;10.70;99.90
23259;DHT22;11798;51.528;7.240;2023-05-29T03:27:23;10.70;99.90
23259;DHT22;11798;51.528;7.240;2023-05-29T03:29:48;10.60;99.90
23259;DHT22;11798;51.528;7.240;2023-05-29T03:32:14;10.70;99.90
23259;DHT22;11798;51.528;7.240;2023-05-29T03:34:39;10.60;99.90
23259;DHT22;11798;51.528;7.240;2023-05-29T03:37:05;10.60;99.90
23259;DHT22;11798;51.528;7.240;2023-05-29T03:39:31;10.60;99.90
23259;DHT22;11798;51.528;7.240;2023-05-29T03:41:56;10.60;99.90
23259;DHT22;11798;51.528;7.240;2023-05-29T03:44:22;10.60;99.90
23259;DHT22;11798;51.528;7.240;2023-05-29T03:46:47;10.70;99.90
23259;DHT22;11798;51.528;7.240;2023-05-29T03:49:13;10.60;99.90
23259;DHT22;11798;51.528;7.240;2023-05-29T03:51:38;10.70;99.90
23259;DHT22;11798;51.528;7.240;2023-05-29T03:54:03;10.60;99.90
23259;DHT22;11798;51.528;7.240;2023-05-29T03:56:29;10.60;99.90
23259;DHT22;11798;51.528;7.240;2023-05-29T03:58:55;10.70;99.90
23259;DHT22;11798;51.528;7.240;2023-05-29T04:01:21;10.70;99.90
23259;DHT22;11798;51.528;7.240;2023-05-29T04:03:46;10.60;99.90
23259;DHT22;11798;51.528;7.240;2023-05-29T04:06:12;10.70;99.90
23259;DHT22;11798;51.528;7.240;2023-05-29T04:08:38;10.60;99.90
23259;DHT22;11798;51.528;7.240;2023-05-29T04:11:03;10.60;99.90
23259;DHT22;11798;51.528;7.240;2023-05-29T04:13:30;10.70;99.90
23259;DHT22;11798;51.528;7.240;2023-05-29T04:15:55;10.60;99.90
23259;DHT22;11798;51.528;7.240;2023-05-29T04:18:21;10.70;99.90
23259;DHT22;11798;51.528;7.240;2023-05-29T04:20:46;10.60;99.90
23259;DHT22;11798;51.528;7.240;2023-05-29T04:23:12;10.60;99.90
23259;DHT22;11798;51.528;7.240;2023-05-29T04:25:38;10.60;99.90
23259;DHT22;11798;51.528;7.240;2023-05-29T04:28:04;10.60;99.90
23259;DHT22;11798;51.528;7.240;2023-05-29T04:30:29;10.60;99.90
23259;DHT22;11798;51.528;7.240;2023-05-29T04:32:55;10.60;99.90
23259;DHT22;11798;51.528;7.240;2023-05-29T04:35:22;10.60;99.90
23259;DHT22;11798;51.528;7.240;2023-05-29T04:37:48;10.60;99.90
23259;DHT22;11798;51.528;7.240;2023-05-29T04:40:13;10.50;99.90
23259;DHT22;11798;51.528;7.240;2023-05-29T04:42:42;10.50;99.90
23259;DHT22;11798;51.528;7.240;2023-05-29T04:45:10;10.60;99.90
23259;DHT22;11798;51.528;7.240;2023-05-29T04:47:35;10.60;99.90
23259;DHT22;11798;51.528;7.240;2023-05-29T04:50:10;10.60;99.90
23259;DHT22;11798;51.528;7.240;2023-05-29T04:52:36;10.60;99.90
23259;DHT22;11798;51.528;7.240;2023-05-29T04:55:02;10.70;99.90
23259;DHT22;11798;51.528;7.240;2023-05-29T04:57:28;10.60;99.90
23259;DHT22;11798;51.528;7.240;2023-05-29T04:59:53;10.70;99.90
23259;DHT22;11798;51.528;7.240;2023-05-29T05:02:19;10.70;99.90
23259;DHT22;11798;51.528;7.240;2023-05-29T05:04:44;10.70;99.90
23259;DHT22;11798;51.528;7.240;2023-05-29T05:07:11;10.70;99.90
23259;DHT22;11798;51.528;7.240;2023-05-29T05:09:37;10.80;99.90
23259;DHT22;11798;51.528;7.240;2023-05-29T05:12:03;10.80;99.90
23259;DHT22;11798;51.528;7.240;2023-05-29T05:14:28;10.80;99.90
23259;DHT22;11798;51.528;7.240;2023-05-29T05:16:54;10.80;99.90
23259;DHT22;11798;51.528;7.240;2023-05-29T05:19:20;10.90;99.90
23259;DHT22;11798;51.528;7.240;2023-05-29T05:21:45;11.00;99.90
23259;DHT22;11798;51.528;7.240;2023-05-29T05:24:11;11.10;99.90
23259;DHT22;11798;51.528;7.240;2023-05-29T05:26:37;11.20;99.90
23259;DHT22;11798;51.528;7.240;2023-05-29T05:29:02;11.30;99.90
23259;DHT22;11798;51.528;7.240;2023-05-29T05:31:28;11.20;99.90
23259;DHT22;11798;51.528;7.240;2023-05-29T05:33:54;11.20;99.90
23259;DHT22;11798;51.528;7.240;2023-05-29T05:36:19;11.40;99.90
23259;DHT22;11798;51.528;7.240;2023-05-29T05:38:45;11.40;99.90
23259;DHT22;11798;51.528;7.240;2023-05-29T05:41:11;11.50;99.90
23259;DHT22;11798;51.528;7.240;2023-05-29T05:43:37;11.50;99.90
23259;DHT22;11798;51.528;7.240;2023-05-29T05:46:02;11.60;99.90
23259;DHT22;11798;51.528;7.240;2023-05-29T05:48:28;11.60;99.90
23259;DHT22;11798;51.528;7.240;2023-05-29T05:50:53;11.70;99.90
23259;DHT22;11798;51.528;7.240;2023-05-29T05:53:19;11.70;99.90
23259;DHT22;11798;51.528;7.240;2023-05-29T05:55:46;11.80;99.90
23259;DHT22;11798;51.528;7.240;2023-05-29T05:58:15;11.80;99.90
23259;DHT22;11798;51.528;7.240;2023-05-29T06:00:40;11.90;99.90
23259;DHT22;11798;51.528;7.240;2023-05-29T06:03:07;11.90;99.90
23259;DHT22;11798;51.528;7.240;2023-05-29T06:05:33;12.00;99.90
23259;DHT22;11798;51.528;7.240;2023-05-29T06:08:01;12.10;99.90
23259;DHT22;11798;51.528;7.240;2023-05-29T06:10:27;12.30;99.90
23259;DHT22;11798;51.528;7.240;2023-05-29T06:12:53;12.10;99.90
23259;DHT22;11798;51.528;7.240;2023-05-29T06:15:18;12.10;99.90
23259;DHT22;11798;51.528;7.240;2023-05-29T06:17:44;12.20;99.90
23259;DHT22;11798;51.528;7.240;2023-05-29T06:20:10;12.10;99.90
23259;DHT22;11798;51.528;7.240;2023-05-29T06:22:37;12.30;99.90
23259;DHT22;11798;51.528;7.240;2023-05-29T06:25:03;12.30;99.90
23259;DHT22;11798;51.528;7.240;2023-05-29T06:27:29;12.30;99.90
23259;DHT22;11798;51.528;7.240;2023-05-29T06:29:56;12.50;99.90
23259;DHT22;11798;51.528;7.240;2023-05-29T06:32:22;12.50;99.90
23259;DHT22;11798;51.528;7.240;2023-05-29T06:34:47;12.60;99.90
23259;DHT22;11798;51.528;7.240;2023-05-29T06:37:13;12.60;99.90
23259;DHT22;11798;51.528;7.240;2023-05-29T06:39:38;12.70;99.90
23259;DHT22;11798;51.528;7.240;2023-05-29T06:42:07;12.80;99.90
23259;DHT22;11798;51.528;7.240;2023-05-29T06:44:33;12.80;99.90
23259;DHT22;11798;51.528;7.240;2023-05-29T06:46:59;13.00;99.90
23259;DHT22;11798;51.528;7.240;2023-05-29T06:49:24;13.10;99.90
23259;DHT22;11798;51.528;7.240;2023-05-29T06:51:50;13.00;99.90
23259;DHT22;11798;51.528;7.240;2023-05-29T06:54:16;13.10;99.90
23259;DHT22;11798;51.528;7.240;2023-05-29T06:56:41;13.20;99.90
23259;DHT22;11798;51.528;7.240;2023-05-29T06:59:07;13.40;99.90
23259;DHT22;11798;51.528;7.240;2023-05-29T07:01:33;13.50;99.90
23259;DHT22;11798;51.528;7.240;2023-05-29T07:03:58;13.50;99.90
23259;DHT22;11798;51.528;7.240;2023-05-29T07:06:24;13.60;99.90
23259;DHT22;11798;51.528;7.240;2023-05-29T07:08:50;13.40;99.90
23259;DHT22;11798;51.528;7.240;2023-05-29T07:11:15;13.40;99.90
23259;DHT22;11798;51.528;7.240;2023-05-29T07:13:41;13.60;99.90
23259;DHT22;11798;51.528;7.240;2023-05-29T07:16:07;13.70;99.90
23259;DHT22;11798;51.528;7.240;2023-05-29T07:18:32;13.80;99.90
23259;DHT22;11798;51.528;7.240;2023-05-29T07:21:00;14.00;99.90
23259;DHT22;11798;51.528;7.240;2023-05-29T07:23:26;13.90;99.90
23259;DHT22;11798;51.528;7.240;2023-05-29T07:25:51;13.90;99.90
23259;DHT22;11798;51.528;7.240;2023-05-29T07:28:17;14.00;99.90
23259;DHT22;11798;51.528;7.240;2023-05-29T07:30:42;13.90;99.90
23259;DHT22;11798;51.528;7.240;2023-05-29T07:33:08;14.10;99.90
23259;DHT22;11798;51.528;7.240;2023-05-29T07:35:34;14.40;99.90
23259;DHT22;11798;51.528;7.240;2023-05-29T07:38:00;14.20;99.90
23259;DHT22;11798;51.528;7.240;2023-05-29T07:40:26;14.20;99.90
23259;DHT22;11798;51.528;7.240;2023-05-29T07:42:51;14.10;99.90
23259;DHT22;11798;51.528;7.240;2023-05-29T07:45:17;14.20;99.90
23259;DHT22;11798;51.528;7.240;2023-05-29T07:47:42;14.30;99.90
23259;DHT22;11798;51.528;7.240;2023-05-29T07:50:08;14.30;99.90
23259;DHT22;11798;51.528;7.240;2023-05-29T07:52:34;14.30;99.90
23259;DHT22;11798;51.528;7.240;2023-05-29T07:55:00;14.40;99.90
23259;DHT22;11798;51.528;7.240;2023-05-29T07:57:27;14.50;99.90
23259;DHT22;11798;51.528;7.240;2023-05-29T07:59:53;14.50;99.90
23259;DHT22;11798;51.528;7.240;2023-05-29T08:02:19;14.60;99.90
23259;DHT22;11798;51.528;7.240;2023-05-29T08:04:45;14.40;99.90
23259;DHT22;11798;51.528;7.240;2023-05-29T08:07:10;14.30;99.90
23259;DHT22;11798;51.528;7.240;2023-05-29T08:09:36;14.40;99.90
23259;DHT22;11798;51.528;7.240;2023-05-29T08:12:02;14.40;99.90
23259;DHT22;11798;51.528;7.240;2023-05-29T08:14:27;14.60;99.90
23259;DHT22;11798;51.528;7.240;2023-05-29T08:16:54;14.70;99.90
23259;DHT22;11798;51.528;7.240;2023-05-29T08:19:19;14.70;99.90
23259;DHT22;11798;51.528;7.240;2023-05-29T08:21:45;14.80;99.90
23259;DHT22;11798;51.528;7.240;2023-05-29T08:24:11;14.80;99.90
23259;DHT22;11798;51.528;7.240;2023-05-29T08:26:36;14.90;99.90
23259;DHT22;11798;51.528;7.240;2023-05-29T08:29:02;15.00;99.90
23259;DHT22;11798;51.528;7.240;2023-05-29T08:31:27;15.10;99.90
23259;DHT22;11798;51.528;7.240;2023-05-29T08:33:53;15.20;99.90
23259;DHT22;11798;51.528;7.240;2023-05-29T08:36:19;15.30;99.90
23259;DHT22;11798;51.528;7.240;2023-05-29T08:38:50;15.30;99.90
23259;DHT22;11798;51.528;7.240;2023-05-29T08:41:27;15.30;99.90
23259;DHT22;11798;51.528;7.240;2023-05-29T08:43:54;15.50;99.90
23259;DHT22;11798;51.528;7.240;2023-05-29T08:46:20;15.50;99.90
23259;DHT22;11798;51.528;7.240;2023-05-29T08:48:47;15.60;99.90
23259;DHT22;11798;51.528;7.240;2023-05-29T08:51:13;15.60;99.90
23259;DHT22;11798;51.528;7.240;2023-05-29T08:53:39;15.60;99.90
23259;DHT22;11798;51.528;7.240;2023-05-29T08:56:05;15.70;99.90
23259;DHT22;11798;51.528;7.240;2023-05-29T08:58:31;15.60;99.90
23259;DHT22;11798;51.528;7.240;2023-05-29T09:00:57;15.70;99.90
23259;DHT22;11798;51.528;7.240;2023-05-29T09:03:22;15.70;99.90
23259;DHT22;11798;51.528;7.240;2023-05-29T09:05:48;15.80;99.90
23259;DHT22;11798;51.528;7.240;2023-05-29T09:08:14;15.80;99.90
23259;DHT22;11798;51.528;7.240;2023-05-29T09:10:43;15.90;99.90
23259;DHT22;11798;51.528;7.240;2023-05-29T09:13:10;16.10;99.90
23259;DHT22;11798;51.528;7.240;2023-05-29T09:15:36;16.10;99.90
23259;DHT22;11798;51.528;7.240;2023-05-29T09:18:05;16.10;99.90
23259;DHT22;11798;51.528;7.240;2023-05-29T09:20:30;16.10;99.90
23259;DHT22;11798;51.528;7.240;2023-05-29T09:22:59;16.00;99.90
23259;DHT22;11798;51.528;7.240;2023-05-29T09:25:26;16.20;99.90
23259;DHT22;11798;51.528;7.240;2023-05-29T09:27:56;16.20;99.90
23259;DHT22;11798;51.528;7.240;2023-05-29T09:32:58;16.10;99.90
23259;DHT22;11798;51.528;7.240;2023-05-29T09:35:24;16.10;99.90
23259;DHT22;11798;51.528;7.240;2023-05-29T09:37:49;16.30;99.90
23259;DHT22;11798;51.528;7.240;2023-05-29T09:40:15;16.40;99.90
23259;DHT22;11798;51.528;7.240;2023-05-29T09:42:41;16.50;99.90
23259;DHT22;11798;51.528;7.240;2023-05-29T09:45:06;16.40;99.90
23259;DHT22;11798;51.528;7.240;2023-05-29T09:47:34;16.60;99.90
23259;DHT22;11798;51.528;7.240;2023-05-29T09:50:00;16.40;99.90
23259;DHT22;11798;51.528;7.240;2023-05-29T09:52:26;16.60;99.90
23259;DHT22;11798;51.528;7.240;2023-05-29T09:54:55;16.70;99.90
23259;DHT22;11798;51.528;7.240;2023-05-29T09:57:22;16.70;99.90
23259;DHT22;11798;51.528;7.240;2023-05-29T09:59:49;16.80;99.90
23259;DHT22;11798;51.528;7.240;2023-05-29T10:02:16;16.70;99.90
23259;DHT22;11798;51.528;7.240;2023-05-29T10:04:43;16.90;99.90
23259;DHT22;11798;51.528;7.240;2023-05-29T10:07:17;16.80;99.90
23259;DHT22;11798;51.528;7.240;2023-05-29T10:09:45;17.00;99.90
23259;DHT22;11798;51.528;7.240;2023-05-29T10:12:13;17.00;99.90
23259;DHT22;11798;51.528;7.240;2023-05-29T10:14:42;17.00;99.90
23259;DHT22;11798;51.528;7.240;2023-05-29T10:17:09;17.20;99.90
23259;DHT22;11798;51.528;7.240;2023-05-29T10:19:37;17.10;99.90
23259;DHT22;11798;51.528;7.240;2023-05-29T10:22:04;17.10;99.90
23259;DHT22;11798;51.528;7.240;2023-05-29T10:24:31;17.10;99.90
23259;DHT22;11798;51.528;7.240;2023-05-29T10:26:56;17.10;99.90
23259;DHT22;11798;51.528;7.240;2023-05-29T10:40:03;17.60;99.90
23259;DHT22;11798;51.528;7.240;2023-05-29T10:42:41;17.80;99.90
23259;DHT22;11798;51.528;7.240;2023-05-29T10:45:08;17.80;99.90
23259;DHT22;11798;51.528;7.240;2023-05-29T10:47:33;17.90;99.90
23259;DHT22;11798;51.528;7.240;2023-05-29T10:49:59;18.20;99.90
23259;DHT22;11798;51.528;7.240;2023-05-29T10:52:25;18.00;99.90
23259;DHT22;11798;51.528;7.240;2023-05-29T10:54:52;18.00;99.90
23259;DHT22;11798;51.528;7.240;2023-05-29T10:57:18;18.10;99.90
23259;DHT22;11798;51.528;7.240;2023-05-29T10:59:45;17.90;99.90
23259;DHT22;11798;51.528;7.240;2023-05-29T11:02:11;17.90;99.90
23259;DHT22;11798;51.528;7.240;2023-05-29T11:04:36;18.10;99.90
23259;DHT22;11798;51.528;7.240;2023-05-29T11:07:02;18.20;99.90
23259;DHT22;11798;51.528;7.240;2023-05-29T11:09:32;18.30;99.90
23259;DHT22;11798;51.528;7.240;2023-05-29T11:14:44;18.60;99.90
23259;DHT22;11798;51.528;7.240;2023-05-29T11:17:14;18.60;99.90
23259;DHT22;11798;51.528;7.240;2023-05-29T11:19:54;18.60;99.90
23259;DHT22;11798;51.528;7.240;2023-05-29T11:22:21;18.30;99.90
23259;DHT22;11798;51.528;7.240;2023-05-29T11:24:48;18.30;99.90
23259;DHT22;11798;51.528;7.240;2023-05-29T11:27:16;18.60;99.90
23259;DHT22;11798;51.528;7.240;2023-05-29T11:29:42;18.50;99.90
23259;DHT22;11798;51.528;7.240;2023-05-29T11:32:10;18.50;99.90
23259;DHT22;11798;51.528;7.240;2023-05-29T11:34:39;18.60;99.90
23259;DHT22;11798;51.528;7.240;2023-05-29T11:37:04;18.60;99.90
23259;DHT22;11798;51.528;7.240;2023-05-29T11:39:30;18.70;99.90
23259;DHT22;11798;51.528;7.240;2023-05-29T11:41:58;18.50;99.90
23259;DHT22;11798;51.528;7.240;2023-05-29T11:44:25;18.90;99.90
23259;DHT22;11798;51.528;7.240;2023-05-29T11:47:01;19.00;99.90
23259;DHT22;11798;51.528;7.240;2023-05-29T11:49:33;18.80;99.90
23259;DHT22;11798;51.528;7.240;2023-05-29T11:54:32;19.00;99.90
23259;DHT22;11798;51.528;7.240;2023-05-29T11:56:58;19.00;99.90
23259;DHT22;11798;51.528;7.240;2023-05-29T11:59:28;18.90;99.90
23259;DHT22;11798;51.528;7.240;2023-05-29T12:01:53;18.80;99.90
23259;DHT22;11798;51.528;7.240;2023-05-29T12:04:19;18.80;99.90
23259;DHT22;11798;51.528;7.240;2023-05-29T12:06:44;18.90;99.90
23259;DHT22;11798;51.528;7.240;2023-05-29T12:09:22;19.10;99.90
23259;DHT22;11798;51.528;7.240;2023-05-29T12:11:49;19.00;99.90
23259;DHT22;11798;51.528;7.240;2023-05-29T12:14:15;19.00;99.90
23259;DHT22;11798;51.528;7.240;2023-05-29T12:16:40;19.10;99.90
23259;DHT22;11798;51.528;7.240;2023-05-29T12:19:06;19.20;99.90
23259;DHT22;11798;51.528;7.240;2023-05-29T12:21:31;19.30;99.90
23259;DHT22;11798;51.528;7.240;2023-05-29T12:23:57;19.20;99.90
23259;DHT22;11798;51.528;7.240;2023-05-29T12:26:23;19.10;99.90
23259;DHT22;11798;51.528;7.240;2023-05-29T12:28:51;19.20;99.90
23259;DHT22;11798;51.528;7.240;2023-05-29T12:31:29;19.10;99.90
23259;DHT22;11798;51.528;7.240;2023-05-29T12:33:59;19.40;99.90
23259;DHT22;11798;51.528;7.240;2023-05-29T12:36:25;19.50;99.90
23259;DHT22;11798;51.528;7.240;2023-05-29T12:38:51;19.70;99.90
23259;DHT22;11798;51.528;7.240;2023-05-29T12:41:27;19.70;99.90
23259;DHT22;11798;51.528;7.240;2023-05-29T12:43:54;19.50;99.90
23259;DHT22;11798;51.528;7.240;2023-05-29T12:46:20;19.40;99.90
23259;DHT22;11798;51.528;7.240;2023-05-29T12:48:46;19.40;99.90
23259;DHT22;11798;51.528;7.240;2023-05-29T12:51:11;19.90;99.90
23259;DHT22;11798;51.528;7.240;2023-05-29T12:53:37;19.90;99.90
23259;DHT22;11798;51.528;7.240;2023-05-29T12:56:02;19.90;99.90
23259;DHT22;11798;51.528;7.240;2023-05-29T12:58:28;19.80;99.90
23259;DHT22;11798;51.528;7.240;2023-05-29T13:00:53;19.80;99.90
23259;DHT22;11798;51.528;7.240;2023-05-29T13:03:21;19.70;99.90
23259;DHT22;11798;51.528;7.240;2023-05-29T13:05:49;19.50;99.90
23259;DHT22;11798;51.528;7.240;2023-05-29T13:08:14;19.50;99.90
23259;DHT22;11798;51.528;7.240;2023-05-29T13:10:40;19.60;99.90
23259;DHT22;11798;51.528;7.240;2023-05-29T13:13:05;19.80;99.90
23259;DHT22;11798;51.528;7.240;2023-05-29T13:15:31;20.10;99.90
23259;DHT22;11798;51.528;7.240;2023-05-29T13:17:58;19.80;99.90
23259;DHT22;11798;51.528;7.240;2023-05-29T13:20:23;19.90;99.90
23259;DHT22;11798;51.528;7.240;2023-05-29T13:22:49;19.90;99.90
23259;DHT22;11798;51.528;7.240;2023-05-29T13:25:15;19.80;99.90
23259;DHT22;11798;51.528;7.240;2023-05-29T13:27:41;19.90;99.90
23259;DHT22;11798;51.528;7.240;2023-05-29T13:30:07;19.70;99.90
23259;DHT22;11798;51.528;7.240;2023-05-29T13:32:33;19.70;99.90
23259;DHT22;11798;51.528;7.240;2023-05-29T13:34:59;20.00;99.90
23259;DHT22;11798;51.528;7.240;2023-05-29T13:37:24;20.10;99.90
23259;DHT22;11798;51.528;7.240;2023-05-29T13:39:50;20.20;99.90
23259;DHT22;11798;51.528;7.240;2023-05-29T13:42:16;20.40;99.90
23259;DHT22;11798;51.528;7.240;2023-05-29T13:44:42;20.30;99.90
23259;DHT22;11798;51.528;7.240;2023-05-29T13:47:07;20.50;99.90
23259;DHT22;11798;51.528;7.240;2023-05-29T13:49:33;20.30;99.90
23259;DHT22;11798;51.528;7.240;2023-05-29T13:51:59;20.30;99.90
23259;DHT22;11798;51.528;7.240;2023-05-29T13:54:24;20.50;99.90
23259;DHT22;11798;51.528;7.240;2023-05-29T13:56:52;20.50;99.90
23259;DHT22;11798;51.528;7.240;2023-05-29T13:59:17;20.70;99.90
23259;DHT22;11798;51.528;7.240;2023-05-29T14:01:44;20.60;99.90
23259;DHT22;11798;51.528;7.240;2023-05-29T14:04:09;20.60;99.90
23259;DHT22;11798;51.528;7.240;2023-05-29T14:06:35;20.60;99.90
23259;DHT22;11798;51.528;7.240;2023-05-29T14:09:02;20.40;99.90
23259;DHT22;11798;51.528;7.240;2023-05-29T14:11:27;20.40;99.90
23259;DHT22;11798;51.528;7.240;2023-05-29T14:13:53;20.40;99.90
23259;DHT22;11798;51.528;7.240;2023-05-29T14:16:18;20.50;99.90
23259;DHT22;11798;51.528;7.240;2023-05-29T14:18:44;20.50;99.90
23259;DHT22;11798;51.528;7.240;2023-05-29T14:21:12;20.40;99.90
23259;DHT22;11798;51.528;7.240;2023-05-29T14:23:38;20.30;99.90
23259;DHT22;11798;51.528;7.240;2023-05-29T14:26:03;20.30;99.90
23259;DHT22;11798;51.528;7.240;2023-05-29T14:28:29;20.30;99.90
23259;DHT22;11798;51.528;7.240;2023-05-29T14:30:54;20.50;99.90
23259;DHT22;11798;51.528;7.240;2023-05-29T14:33:20;20.70;99.90
23259;DHT22;11798;51.528;7.240;2023-05-29T14:35:45;20.80;99.90
23259;DHT22;11798;51.528;7.240;2023-05-29T14:38:11;21.20;99.90
23259;DHT22;11798;51.528;7.240;2023-05-29T14:40:36;21.00;99.90
23259;DHT22;11798;51.528;7.240;2023-05-29T14:43:03;21.00;99.90
23259;DHT22;11798;51.528;7.240;2023-05-29T14:45:28;21.10;99.90
23259;DHT22;11798;51.528;7.240;2023-05-29T14:47:54;21.20;99.90
23259;DHT22;11798;51.528;7.240;2023-05-29T14:50:19;21.30;99.90
23259;DHT22;11798;51.528;7.240;2023-05-29T14:52:45;21.30;99.90
23259;DHT22;11798;51.528;7.240;2023-05-29T14:55:12;21.30;99.90
23259;DHT22;11798;51.528;7.240;2023-05-29T14:57:40;21.70;99.90
23259;DHT22;11798;51.528;7.240;2023-05-29T15:00:06;21.70;99.90
23259;DHT22;11798;51.528;7.240;2023-05-29T15:02:32;21.50;99.90
23259;DHT22;11798;51.528;7.240;2023-05-29T15:04:57;21.90;99.90
23259;DHT22;11798;51.528;7.240;2023-05-29T15:07:23;21.80;99.90
23259;DHT22;11798;51.528;7.240;2023-05-29T15:09:48;22.20;99.90
23259;DHT22;11798;51.528;7.240;2023-05-29T15:12:14;22.00;99.90
23259;DHT22;11798;51.528;7.240;2023-05-29T15:14:39;22.30;99.90
23259;DHT22;11798;51.528;7.240;2023-05-29T15:17:05;22.00;99.90
23259;DHT22;11798;51.528;7.240;2023-05-29T15:19:30;22.10;99.90
23259;DHT22;11798;51.528;7.240;2023-05-29T15:21:57;21.90;99.90
23259;DHT22;11798;51.528;7.240;2023-05-29T15:24:22;22.40;99.90
23259;DHT22;11798;51.528;7.240;2023-05-29T15:26:47;22.40;99.90
23259;DHT22;11798;51.528;7.240;2023-05-29T15:29:13;22.60;99.90
23259;DHT22;11798;51.528;7.240;2023-05-29T15:31:38;22.70;99.90
23259;DHT22;11798;51.528;7.240;2023-05-29T15:34:04;22.80;99.90
23259;DHT22;11798;51.528;7.240;2023-05-29T15:36:29;22.70;99.90
23259;DHT22;11798;51.528;7.240;2023-05-29T15:38:55;22.40;99.90
23259;DHT22;11798;51.528;7.240;2023-05-29T15:41:20;22.80;99.90
23259;DHT22;11798;51.528;7.240;2023-05-29T15:43:46;23.00;99.90
23259;DHT22;11798;51.528;7.240;2023-05-29T15:46:11;23.10;99.90
23259;DHT22;11798;51.528;7.240;2023-05-29T15:48:37;23.20;99.90
23259;DHT22;11798;51.528;7.240;2023-05-29T15:51:02;23.30;99.90